Terminal Aerodrome Forecast
Issued by NWS Tulsa, OK

Home | Current Version | Previous Version | Text Only | Print | Product List | Glossary On
Versions: 1 2 3 4 5 6 7 8 9 10 11 12 13 14 15 16 17 18
000
FTUS44 KTSA 181700
TAFTUL
TAF
KTUL 181737Z 1818/1918 17008KT P6SM BKN040 BKN100
     FM182100 12007KT P6SM SCT040 BKN120
     FM190100 14006KT P6SM SCT250
     FM190900 16005KT 5SM BR SCT025
     FM191500 17007KT P6SM SCT040=

USA.gov is the U.S. government's official web portal to all federal, state and local government web resources and services.